Pagrindinis puslapis
METAR-TAF:

METAR-TAF

Oro uostai :

Skagway, Aliaska, Jungtinės Amerikos Valstijos

platuma: 59-28N, ilguma: 135-18W, Aukštis: 16 m

Dabartinis oras

Ataskaita buvo paskelbta 30 minutes, ne 15:53 UTC
Vėjas 17 kt iš Šiaurės/Šiaurės Rytų su gūsio iki 26 kt
Temperatūra -7°C
Drėgmė 32%
Slėgis 1030 hPa
Matomumas: 16.1 km
Giedras dangus

METAR: PAGY 311553Z AUTO 03017G26KT 10SM CLR M07/M21 A3041 RMK AO2 PK WND 03029/1524 SLP298 T10721211 TSNO $

Laikas: 08:23 (16:23 UTC)

Prognozė

Ataskaita buvo paskelbta 5 valandos ir 1 minutes, ne 11:22 UTC
Prognozė galioja nuo 31 metu 12 UTC su 01 metu 12 UTC
Vėjas 17 kt iš Šiaurės/Šiaurės Rytų su gūsio iki 30 kt
Matomumas: 10 km
Giedras dangus
Nuo 01 metu 0300 UTC
Vėjas 10 kt iš Šiaurės/Šiaurės Rytų
Matomumas: 10 km
Giedras dangus

TAF: PAGY 311122Z 3112/0112 03017G30KT P6SM SKC FM010300 03010KT P6SM SKC AMD LTD TO CLD VIS AND WIND

Orai ataskaitas ir orų prognozės (METAR, TAF).

turimą stotys yra geltonos ir raudonos taškus žemėlapyje.

Perkelti pele per norėdami pamatyti stoties vardą.

Tada spustelėkite, norėdami matyti oro stebėjimo ir prognozės.

Norėdami pakeisti žemėlapį: spustelėkite ant žalios mygtukų su juodo kryžiaus žemyn,; žalią mygtuką su brūkšneliu, jei norite nutolinti; arba žalių rodyklių gretimoms žemėlapius.


METAR-TAF: